createdAt,value
2019-01-22T00:00:41.720Z,101754.18
2019-01-22T00:03:11.081Z,101746.30
2019-01-22T00:05:40.357Z,101748.03
2019-01-22T00:08:09.592Z,101744.52
2019-01-22T00:10:38.857Z,101741.09
2019-01-22T00:13:08.103Z,101738.33
2019-01-22T00:15:37.400Z,101734.28
2019-01-22T00:18:06.641Z,101746.42
2019-01-22T00:20:35.915Z,101736.81
2019-01-22T00:23:05.153Z,101741.44
2019-01-22T00:25:34.467Z,101733.64
2019-01-22T00:28:03.767Z,101736.56
2019-01-22T00:30:33.051Z,101731.38
2019-01-22T00:33:02.306Z,101729.25
2019-01-22T00:35:31.554Z,101729.13
2019-01-22T00:38:00.797Z,101721.70
2019-01-22T00:40:30.058Z,101728.25
2019-01-22T00:42:59.317Z,101726.97
2019-01-22T00:45:28.663Z,101730.05
2019-01-22T00:47:57.982Z,101724.80
2019-01-22T00:50:27.286Z,101717.36
2019-01-22T00:52:56.572Z,101724.68
2019-01-22T00:55:25.831Z,101725.96
2019-01-22T00:57:55.188Z,101723.37
2019-01-22T01:00:29.916Z,101717.67
2019-01-22T01:02:59.357Z,101714.55
2019-01-22T01:05:28.628Z,101708.44
2019-01-22T01:07:58.968Z,101707.20
2019-01-22T01:10:27.300Z,101703.33
2019-01-22T01:12:56.633Z,101706.84
2019-01-22T01:15:25.872Z,101699.78
2019-01-22T01:17:55.137Z,101702.44
2019-01-22T01:20:24.416Z,101696.31
2019-01-22T01:22:53.689Z,101693.64
2019-01-22T01:25:23.412Z,101689.70
2019-01-22T01:27:52.766Z,101690.05
2019-01-22T01:30:23.852Z,101691.85
2019-01-22T01:32:53.184Z,101691.30
2019-01-22T01:35:22.474Z,101687.33
2019-01-22T01:37:51.760Z,101680.04
2019-01-22T01:40:21.089Z,101680.41
2019-01-22T01:42:50.367Z,101669.65
2019-01-22T01:45:19.892Z,101666.60
2019-01-22T01:47:49.178Z,101657.02
2019-01-22T01:50:18.942Z,101663.14
2019-01-22T01:52:48.274Z,101654.41
2019-01-22T01:55:18.128Z,101650.47
2019-01-22T01:57:47.520Z,101646.58
2019-01-22T02:00:18.774Z,101646.55
2019-01-22T02:02:48.050Z,101645.26
2019-01-22T02:05:17.405Z,101636.59
2019-01-22T02:07:46.663Z,101634.80
2019-01-22T02:10:21.114Z,101628.75
2019-01-22T02:12:59.495Z,101618.29
2019-01-22T02:15:41.707Z,101611.73
2019-01-22T02:18:20.729Z,101603.89
2019-01-22T02:21:46.826Z,101608.20
2019-01-22T02:24:50.260Z,101596.52
2019-01-22T02:28:16.707Z,101594.78
2019-01-22T02:31:20.570Z,101586.88
2019-01-22T02:34:30.054Z,101590.64
2019-01-22T02:37:55.614Z,101583.64
2019-01-22T02:40:59.130Z,101575.35
2019-01-22T02:44:00.183Z,101576.02
2019-01-22T02:46:57.258Z,101572.80
2019-01-22T02:50:07.186Z,101558.75
2019-01-22T02:53:05.322Z,101555.72
2019-01-22T02:56:26.725Z,101554.72
2019-01-22T02:59:32.212Z,101565.33
2019-01-22T03:03:07.636Z,101550.86
2019-01-22T03:05:56.092Z,101540.41
2019-01-22T03:09:15.099Z,101541.55
2019-01-22T03:12:09.532Z,101535.36
2019-01-22T03:15:33.018Z,101529.23
2019-01-22T03:18:31.724Z,101523.89
2019-01-22T03:21:30.521Z,101518.20
2019-01-22T03:24:37.336Z,101511.66
2019-01-22T03:27:42.177Z,101504.19
2019-01-22T03:30:44.318Z,101504.19
2019-01-22T03:33:46.566Z,101501.08
2019-01-22T03:37:16.057Z,101490.63
2019-01-22T03:40:09.420Z,101490.22
2019-01-22T03:43:23.749Z,101484.52
2019-01-22T03:46:25.068Z,101486.18
2019-01-22T03:49:26.097Z,101475.30
2019-01-22T03:52:04.654Z,101487.75
2019-01-22T03:55:06.407Z,101481.64
2019-01-22T03:57:48.789Z,101469.47
2019-01-22T04:00:34.392Z,101472.84
2019-01-22T04:03:03.872Z,101473.58
2019-01-22T04:05:33.264Z,101464.86
2019-01-22T04:08:02.585Z,101465.20
2019-01-22T04:10:41.036Z,101456.52
2019-01-22T04:13:10.416Z,101458.16
2019-01-22T04:15:44.196Z,101453.34
2019-01-22T04:18:13.698Z,101452.41
2019-01-22T04:20:45.635Z,101452.74
2019-01-22T04:23:21.400Z,101445.42
2019-01-22T04:26:10.810Z,101449.59
2019-01-22T04:29:30.190Z,101440.81
2019-01-22T04:32:32.142Z,101438.94
2019-01-22T04:35:44.670Z,101431.94
2019-01-22T04:38:36.575Z,101424.90
2019-01-22T04:42:09.113Z,101419.19
2019-01-22T04:45:05.132Z,101423.95
2019-01-22T04:48:13.103Z,101414.72
2019-01-22T04:51:08.226Z,101409.46
2019-01-22T04:54:12.716Z,101401.56
2019-01-22T04:56:55.386Z,101395.80
2019-01-22T04:59:56.194Z,101394.84
2019-01-22T05:03:10.059Z,101394.33
2019-01-22T05:06:17.066Z,101393.41
2019-01-22T05:09:30.160Z,101391.18
2019-01-22T05:12:36.922Z,101387.13
2019-01-22T05:15:38.503Z,101381.42
2019-01-22T05:19:01.052Z,101377.42
2019-01-22T05:22:01.452Z,101377.41
2019-01-22T05:25:12.270Z,101375.69
2019-01-22T05:28:15.130Z,101373.45
2019-01-22T05:31:01.020Z,101366.03
2019-01-22T05:34:15.015Z,101367.19
2019-01-22T05:37:56.464Z,101357.23
2019-01-22T05:41:02.081Z,101355.94
2019-01-22T05:44:17.684Z,101359.68
2019-01-22T05:47:17.023Z,101350.48
2019-01-22T05:50:18.261Z,101345.59
2019-01-22T05:53:20.106Z,101348.17
2019-01-22T05:55:51.074Z,101349.89
2019-01-22T05:59:35.626Z,101344.12
2019-01-22T06:02:32.148Z,101346.20
2019-01-22T06:05:51.689Z,101338.35
2019-01-22T06:08:52.190Z,101333.96
2019-01-22T06:11:55.719Z,101327.84
2019-01-22T06:14:44.039Z,101323.50
2019-01-22T06:17:51.354Z,101326.03
2019-01-22T06:20:52.856Z,101324.23
2019-01-22T06:24:00.303Z,101318.97
2019-01-22T06:26:52.492Z,101310.70
2019-01-22T06:29:33.594Z,101315.34
2019-01-22T06:32:35.896Z,101311.46
2019-01-22T06:35:26.861Z,101316.52
2019-01-22T06:38:08.485Z,101317.78
2019-01-22T06:41:13.693Z,101309.60
2019-01-22T06:44:24.791Z,101304.34
2019-01-22T06:47:28.289Z,101301.16
2019-01-22T06:50:23.250Z,101296.68
2019-01-22T06:53:25.858Z,101297.82
2019-01-22T06:56:15.568Z,101301.19
2019-01-22T06:59:18.410Z,101299.89
2019-01-22T07:02:29.380Z,101293.34
2019-01-22T07:05:04.361Z,101300.29
2019-01-22T07:08:24.103Z,101304.46
2019-01-22T07:11:21.142Z,101294.91
2019-01-22T07:14:35.840Z,101292.71
2019-01-22T07:17:27.484Z,101297.40
2019-01-22T07:20:41.967Z,101287.25
2019-01-22T07:23:38.040Z,101292.24
2019-01-22T07:27:13.533Z,101286.91
2019-01-22T07:30:22.256Z,101288.41
2019-01-22T07:33:42.943Z,101274.22
2019-01-22T07:36:30.902Z,101273.95
2019-01-22T07:39:11.144Z,101268.38
2019-01-22T07:41:55.616Z,101268.89
2019-01-22T07:45:12.686Z,101265.20
2019-01-22T07:48:15.026Z,101258.00
2019-01-22T07:51:14.707Z,101258.44
2019-01-22T07:54:24.780Z,101252.31
2019-01-22T07:57:33.725Z,101253.32
2019-01-22T08:00:35.461Z,101247.91
2019-01-22T08:04:14.624Z,101246.88
2019-01-22T08:07:12.927Z,101235.28
2019-01-22T08:10:38.843Z,101234.10
2019-01-22T08:13:46.416Z,101234.34
2019-01-22T08:16:45.734Z,101237.95
2019-01-22T08:19:27.324Z,101238.66
2019-01-22T08:22:31.196Z,101243.59
2019-01-22T08:25:51.308Z,101231.44
2019-01-22T08:28:41.574Z,101240.46
2019-01-22T08:31:51.234Z,101236.57
2019-01-22T08:35:04.355Z,101235.31
2019-01-22T08:38:10.329Z,101224.98
2019-01-22T08:41:27.499Z,101226.27
2019-01-22T08:44:18.566Z,101224.61
2019-01-22T08:47:16.181Z,101214.97
2019-01-22T08:50:23.020Z,101210.72
2019-01-22T08:53:11.545Z,101203.15
2019-01-22T08:56:16.678Z,101198.66
2019-01-22T08:59:21.642Z,101193.85
2019-01-22T09:02:20.690Z,101193.37
2019-01-22T09:05:46.138Z,101196.31
2019-01-22T09:09:06.048Z,101191.06
2019-01-22T09:11:58.291Z,101184.75
2019-01-22T09:15:10.900Z,101181.16
2019-01-22T09:18:33.769Z,101168.69
2019-01-22T09:21:55.889Z,101176.39
2019-01-22T09:24:47.042Z,101177.52
2019-01-22T09:27:33.362Z,101180.94
2019-01-22T09:31:02.354Z,101168.47
2019-01-22T09:34:22.125Z,101167.17
2019-01-22T09:37:14.562Z,101171.98
2019-01-22T09:39:43.846Z,101167.70
2019-01-22T09:42:13.105Z,101158.66
2019-01-22T09:44:42.483Z,101151.07
2019-01-22T09:47:11.727Z,101149.87
2019-01-22T09:49:41.102Z,101152.58
2019-01-22T09:52:10.439Z,101147.86
2019-01-22T09:54:39.734Z,101141.05
2019-01-22T09:57:09.014Z,101141.92
2019-01-22T09:59:38.355Z,101139.05
2019-01-22T10:02:07.691Z,101130.09
2019-01-22T10:04:37.020Z,101131.83
2019-01-22T10:07:06.259Z,101119.51
2019-01-22T10:09:35.519Z,101113.17
2019-01-22T10:12:05.016Z,101115.06
2019-01-22T10:14:34.281Z,101117.33
2019-01-22T10:17:03.570Z,101112.70
2019-01-22T10:19:32.838Z,101113.62
2019-01-22T10:22:02.210Z,101105.49
2019-01-22T10:24:31.487Z,101108.09
2019-01-22T10:27:00.772Z,101101.56
2019-01-22T10:29:30.035Z,101097.80
2019-01-22T10:31:59.294Z,101090.03
2019-01-22T10:34:28.539Z,101088.84
2019-01-22T10:36:57.852Z,101081.13
2019-01-22T10:39:27.110Z,101079.78
2019-01-22T10:41:56.393Z,101071.03
2019-01-22T10:44:25.685Z,101076.72
2019-01-22T10:46:54.961Z,101069.41
2019-01-22T10:49:24.202Z,101064.94
2019-01-22T10:51:53.476Z,101062.80
2019-01-22T10:54:22.783Z,101061.52
2019-01-22T10:56:52.061Z,101046.34
2019-01-22T10:59:21.383Z,101043.36
2019-01-22T11:01:50.732Z,101044.75
2019-01-22T11:04:20.045Z,101030.39
2019-01-22T11:06:49.332Z,101033.93
2019-01-22T11:09:18.646Z,101027.89
2019-01-22T11:11:47.900Z,101014.02
2019-01-22T11:14:17.193Z,101010.67
2019-01-22T11:16:46.437Z,101005.89
2019-01-22T11:19:15.800Z,100995.52
2019-01-22T11:21:45.121Z,100994.69
2019-01-22T11:24:14.400Z,100982.98
2019-01-22T11:26:43.721Z,100984.73
2019-01-22T11:29:13.124Z,100974.70
2019-01-22T11:31:42.452Z,100969.05
2019-01-22T11:34:11.790Z,100969.88
2019-01-22T11:36:41.189Z,100962.36
2019-01-22T11:39:11.224Z,100957.26
2019-01-22T11:41:40.547Z,100950.77
2019-01-22T11:44:09.912Z,100941.31
2019-01-22T11:46:39.194Z,100933.27
2019-01-22T11:49:08.474Z,100925.36
2019-01-22T11:51:37.744Z,100923.22
2019-01-22T11:54:07.080Z,100908.09
2019-01-22T11:56:36.392Z,100897.97
2019-01-22T11:59:05.694Z,100906.93
2019-01-22T12:01:35.040Z,100886.02
2019-01-22T12:04:04.421Z,100891.05
2019-01-22T12:06:33.734Z,100835.80
2019-01-22T12:09:03.104Z,100886.03
2019-01-22T12:11:32.370Z,100882.45
2019-01-22T12:14:01.668Z,100878.60
2019-01-22T12:16:30.958Z,100869.97
2019-01-22T12:19:00.315Z,100870.89
2019-01-22T12:21:29.586Z,100870.89
2019-01-22T12:23:58.872Z,100867.61
2019-01-22T12:26:28.164Z,100868.39
2019-01-22T12:28:57.438Z,100862.80
2019-01-22T12:31:26.862Z,100867.14
2019-01-22T12:33:56.118Z,100855.78
2019-01-22T12:36:25.406Z,100856.77
2019-01-22T12:38:54.652Z,100845.16
2019-01-22T12:41:23.939Z,100838.98
2019-01-22T12:43:53.270Z,100835.86
2019-01-22T12:46:22.567Z,100831.77
2019-01-22T12:48:51.904Z,100822.26
2019-01-22T12:51:21.104Z,100815.71
2019-01-22T12:53:50.447Z,100747.06
2019-01-22T12:56:19.680Z,100804.10
2019-01-22T12:58:49.043Z,100802.25
2019-01-22T13:01:18.320Z,100801.19
2019-01-22T13:03:47.652Z,100785.70
2019-01-22T13:06:17.003Z,100777.48
2019-01-22T13:08:46.254Z,100773.28
2019-01-22T13:11:15.536Z,100778.42
2019-01-22T13:13:44.814Z,100776.34
2019-01-22T13:16:14.066Z,100765.84
2019-01-22T13:18:43.363Z,100765.84
2019-01-22T13:21:12.666Z,100768.46
2019-01-22T13:23:41.926Z,100728.80
2019-01-22T13:26:11.645Z,100743.70
2019-01-22T13:28:40.542Z,100743.70
2019-01-22T13:31:09.776Z,100752.80
2019-01-22T13:33:39.038Z,100751.91
2019-01-22T13:36:08.704Z,100733.00
2019-01-22T13:38:37.980Z,100733.00
2019-01-22T13:41:07.250Z,100736.98
2019-01-22T13:43:36.588Z,100736.98
2019-01-22T13:46:05.873Z,100744.09
2019-01-22T13:48:36.033Z,100738.13
2019-01-22T13:51:04.478Z,100738.13
2019-01-22T13:53:33.782Z,100730.23
2019-01-22T13:56:03.049Z,100741.20
2019-01-22T13:58:32.344Z,100736.88
2019-01-22T14:01:01.628Z,100729.06
2019-01-22T14:03:30.896Z,100727.56
2019-01-22T14:06:00.248Z,100724.82
2019-01-22T14:08:29.552Z,100716.48
2019-01-22T14:10:58.857Z,100712.69
2019-01-22T14:13:28.130Z,100707.39
2019-01-22T14:15:57.444Z,100704.83
2019-01-22T14:18:26.777Z,100689.74
2019-01-22T14:20:56.095Z,100693.41
2019-01-22T14:23:25.424Z,100688.49
2019-01-22T14:25:54.718Z,100677.73
2019-01-22T14:28:24.026Z,100686.22
2019-01-22T14:30:53.325Z,100678.27
2019-01-22T14:33:22.626Z,100681.86
2019-01-22T14:35:51.869Z,100676.67
2019-01-22T14:38:21.170Z,100666.41
2019-01-22T14:40:50.438Z,100663.95
2019-01-22T14:43:19.760Z,100659.37
2019-01-22T14:45:49.036Z,100658.17
2019-01-22T14:48:18.361Z,100665.44
2019-01-22T14:50:47.622Z,100656.89
2019-01-22T14:53:16.918Z,100652.64
2019-01-22T14:55:46.186Z,100654.53
2019-01-22T14:58:15.492Z,100651.13
2019-01-22T15:00:44.858Z,100641.59
2019-01-22T15:03:14.164Z,100631.66
2019-01-22T15:05:43.417Z,100630.05
2019-01-22T15:08:12.724Z,100631.91
2019-01-22T15:10:42.030Z,100632.03
2019-01-22T15:13:11.350Z,100632.09
2019-01-22T15:15:40.610Z,100633.91
2019-01-22T15:18:09.899Z,100639.99
2019-01-22T15:20:39.150Z,100636.54
2019-01-22T15:23:08.392Z,100630.05
2019-01-22T15:25:37.666Z,100632.23
2019-01-22T15:28:06.958Z,100631.38
2019-01-22T15:30:37.348Z,100643.08
2019-01-22T15:33:07.570Z,100637.86
2019-01-22T15:35:36.873Z,100630.45
2019-01-22T15:38:06.152Z,100630.01
2019-01-22T15:40:35.528Z,100623.48
2019-01-22T15:43:04.854Z,100626.94
2019-01-22T15:45:34.211Z,100625.16
2019-01-22T15:48:03.497Z,100625.11
2019-01-22T15:50:32.836Z,100625.08
2019-01-22T15:53:02.189Z,100610.30
2019-01-22T15:55:37.306Z,100617.66
2019-01-22T15:58:07.043Z,100605.94
2019-01-22T16:00:36.418Z,100605.94
2019-01-22T16:03:05.899Z,100598.95
2019-01-22T16:05:35.257Z,100604.55
2019-01-22T16:08:06.552Z,100607.57
2019-01-22T16:10:34.443Z,100612.70
2019-01-22T16:13:03.875Z,100613.10
2019-01-22T16:15:33.238Z,100606.16
2019-01-22T16:18:02.548Z,100606.97
2019-01-22T16:20:31.835Z,100607.84
2019-01-22T16:23:01.115Z,100600.85
2019-01-22T16:25:30.455Z,100599.15
2019-01-22T16:27:59.739Z,100590.89
2019-01-22T16:30:29.025Z,100587.41
2019-01-22T16:32:58.390Z,100589.13
2019-01-22T16:35:27.995Z,100593.03
2019-01-22T16:37:57.392Z,100589.55
2019-01-22T16:40:26.728Z,100590.80
2019-01-22T16:42:56.083Z,100584.70
2019-01-22T16:45:27.980Z,100584.76
2019-01-22T16:47:57.273Z,100572.14
2019-01-22T16:50:27.551Z,100574.75
2019-01-22T16:52:56.823Z,100576.47
2019-01-22T16:55:28.614Z,100581.64
2019-01-22T16:57:58.147Z,100574.72
2019-01-22T17:00:29.270Z,100576.00
2019-01-22T17:02:58.556Z,100566.44
2019-01-22T17:05:27.809Z,100573.39
2019-01-22T17:07:57.079Z,100575.58
2019-01-22T17:10:26.367Z,100569.92
2019-01-22T17:12:55.846Z,100569.91
2019-01-22T17:15:25.213Z,100568.56
2019-01-22T17:17:54.638Z,100570.70
2019-01-22T17:20:29.400Z,100570.69
2019-01-22T17:23:02.401Z,100571.53
2019-01-22T17:25:28.041Z,100566.33
2019-01-22T17:27:57.428Z,100565.02
2019-01-22T17:30:26.743Z,100568.02
2019-01-22T17:33:27.721Z,100561.52
2019-01-22T17:35:57.027Z,100555.45
2019-01-22T17:38:26.342Z,100556.75
2019-01-22T17:40:55.674Z,100545.91
2019-01-22T17:43:24.997Z,100546.73
2019-01-22T17:45:54.411Z,100538.09
2019-01-22T17:48:23.774Z,100542.39
2019-01-22T17:50:53.052Z,100535.89
2019-01-22T17:53:22.352Z,100540.19
2019-01-22T17:55:51.682Z,100533.24
2019-01-22T17:58:21.005Z,100534.52
2019-01-22T18:00:50.330Z,100532.38
2019-01-22T18:03:19.570Z,100530.19
2019-01-22T18:05:49.120Z,100531.90
2019-01-22T18:08:18.429Z,100522.83
2019-01-22T18:10:47.808Z,100525.02
2019-01-22T18:13:17.090Z,100520.69
2019-01-22T18:15:46.424Z,100520.66
2019-01-22T18:18:15.846Z,100517.16
2019-01-22T18:20:45.184Z,100512.38
2019-01-22T18:23:14.439Z,100500.67
2019-01-22T18:25:43.723Z,100503.25
2019-01-22T18:28:13.184Z,100501.06
2019-01-22T18:30:43.329Z,100512.28
2019-01-22T18:33:11.744Z,100506.66
2019-01-22T18:35:43.271Z,100515.28
2019-01-22T18:38:14.714Z,100510.50
2019-01-22T18:40:43.987Z,100516.12
2019-01-22T18:43:13.275Z,100502.29
2019-01-22T18:45:42.699Z,100504.42
2019-01-22T18:48:11.985Z,100507.91
2019-01-22T18:50:41.255Z,100501.37
2019-01-22T18:53:10.843Z,100496.19
2019-01-22T18:55:40.191Z,100487.52
2019-01-22T18:58:09.525Z,100490.97
2019-01-22T19:00:38.803Z,100485.77
2019-01-22T19:03:08.109Z,100481.83
2019-01-22T19:05:37.386Z,100480.53
2019-01-22T19:08:06.697Z,100485.26
2019-01-22T19:10:35.995Z,100481.31
2019-01-22T19:13:05.286Z,100475.21
2019-01-22T19:15:34.567Z,100481.27
2019-01-22T19:18:03.923Z,100478.61
2019-01-22T19:20:33.278Z,100482.94
2019-01-22T19:23:02.544Z,100472.57
2019-01-22T19:25:31.859Z,100476.43
2019-01-22T19:28:01.163Z,100477.70
2019-01-22T19:30:31.012Z,100472.92
2019-01-22T19:33:00.272Z,100475.91
2019-01-22T19:35:29.570Z,100477.61
2019-01-22T19:37:58.901Z,100475.02
2019-01-22T19:40:28.241Z,100475.38
2019-01-22T19:42:57.501Z,100475.80
2019-01-22T19:45:32.110Z,100472.73
2019-01-22T19:48:01.392Z,100473.11
2019-01-22T19:50:30.696Z,100470.48
2019-01-22T19:52:59.946Z,100476.06
2019-01-22T19:55:29.257Z,100462.19
2019-01-22T19:57:58.539Z,100464.31
2019-01-22T20:00:33.029Z,100467.27
2019-01-22T20:03:02.348Z,100469.86
2019-01-22T20:05:31.648Z,100478.92
2019-01-22T20:08:01.000Z,100480.65
2019-01-22T20:10:30.420Z,100478.42
2019-01-22T20:12:59.784Z,100474.11
2019-01-22T20:15:29.082Z,100473.71
2019-01-22T20:17:58.398Z,100484.50
2019-01-22T20:20:27.685Z,100474.17
2019-01-22T20:22:56.999Z,100477.70
2019-01-22T20:25:26.276Z,100481.18
2019-01-22T20:27:55.697Z,100476.00
2019-01-22T20:30:30.408Z,100472.52
2019-01-22T20:32:59.736Z,100475.54
2019-01-22T20:35:29.040Z,100479.85
2019-01-22T20:37:58.324Z,100473.28
2019-01-22T20:40:27.586Z,100467.64
2019-01-22T20:42:56.888Z,100471.45
2019-01-22T20:45:27.623Z,100471.84
2019-01-22T20:47:56.949Z,100468.86
2019-01-22T20:50:26.227Z,100460.63
2019-01-22T20:52:55.572Z,100464.72
2019-01-22T20:55:25.030Z,100459.50
2019-01-22T20:57:55.274Z,100457.78
2019-01-22T21:00:24.251Z,100457.28
2019-01-22T21:02:53.586Z,100460.27
2019-01-22T21:05:25.138Z,100455.48
2019-01-22T21:07:54.436Z,100455.48
2019-01-22T21:10:28.387Z,100454.63
2019-01-22T21:12:57.826Z,100451.57
2019-01-22T21:15:27.258Z,100446.80
2019-01-22T21:17:56.677Z,100448.55
2019-01-22T21:20:26.077Z,100267.89
2019-01-22T21:22:55.438Z,100443.77
2019-01-22T21:25:24.811Z,100451.11
2019-01-22T21:27:54.143Z,100448.09
2019-01-22T21:30:50.148Z,100449.34
2019-01-22T21:33:19.507Z,100461.39
2019-01-22T21:35:48.899Z,100458.73
2019-01-22T21:38:18.314Z,100451.80
2019-01-22T21:40:47.701Z,100462.55
2019-01-22T21:43:17.068Z,100466.89
2019-01-22T21:45:46.509Z,100458.66
2019-01-22T21:48:16.042Z,100459.94
2019-01-22T21:50:45.380Z,100454.95
2019-01-22T21:53:14.734Z,100452.23
2019-01-22T21:55:44.055Z,100450.41
2019-01-22T21:58:13.371Z,100444.67
2019-01-22T22:00:42.690Z,100447.59
2019-01-22T22:03:12.038Z,100446.23
2019-01-22T22:05:41.383Z,100444.00
2019-01-22T22:08:10.710Z,100457.84
2019-01-22T22:10:40.041Z,100445.69
2019-01-22T22:13:09.427Z,100440.87
2019-01-22T22:15:38.761Z,100437.78
2019-01-22T22:18:08.093Z,100428.72
2019-01-22T22:20:37.355Z,100431.31
2019-01-22T22:23:06.683Z,100424.38
2019-01-22T22:25:35.997Z,100427.75
2019-01-22T22:28:05.334Z,100429.01
2019-01-22T22:30:36.477Z,100419.95
2019-01-22T22:33:06.185Z,100411.73
2019-01-22T22:35:35.489Z,100406.98
2019-01-22T22:38:04.856Z,100401.34
2019-01-22T22:40:34.163Z,100399.19
2019-01-22T22:43:03.495Z,100404.33
2019-01-22T22:45:32.823Z,100403.86
2019-01-22T22:48:02.197Z,100405.11
2019-01-22T22:50:32.806Z,100402.52
2019-01-22T22:53:02.216Z,100393.00
2019-01-22T22:55:31.534Z,100397.27
2019-01-22T22:58:00.929Z,100387.33
2019-01-22T23:01:10.758Z,100391.20
2019-01-22T23:03:40.091Z,100390.30
2019-01-22T23:06:09.427Z,100380.39
2019-01-22T23:08:38.770Z,100376.52
2019-01-22T23:11:08.154Z,100370.88
2019-01-22T23:13:37.467Z,100372.56
2019-01-22T23:16:06.921Z,100366.49
2019-01-22T23:18:36.195Z,100373.84
2019-01-22T23:21:05.617Z,100373.85
2019-01-22T23:23:34.914Z,100364.80
2019-01-22T23:26:04.261Z,100359.63
2019-01-22T23:28:33.552Z,100362.61
2019-01-22T23:31:03.057Z,100356.15
2019-01-22T23:33:32.342Z,100362.57
2019-01-22T23:36:01.760Z,100356.07
2019-01-22T23:38:31.105Z,100359.52
2019-01-22T23:41:00.433Z,100354.34
2019-01-22T23:43:29.802Z,100346.16
2019-01-22T23:45:59.108Z,100350.90
2019-01-22T23:48:28.377Z,100345.73
2019-01-22T23:50:57.667Z,100345.30
2019-01-22T23:53:26.945Z,100340.05
2019-01-22T23:55:56.238Z,100338.76
2019-01-22T23:58:25.564Z,100337.86
